createdAt,value
2019-02-14T00:02:00.561Z,4.90
2019-02-14T00:04:07.722Z,4.67
2019-02-14T00:06:14.753Z,4.87
2019-02-14T00:08:21.846Z,4.90
2019-02-14T00:10:29.170Z,5.10
2019-02-14T00:12:36.091Z,5.57
2019-02-14T00:14:44.108Z,5.00
2019-02-14T00:16:50.889Z,4.63
2019-02-14T00:18:58.333Z,4.60
2019-02-14T00:21:06.599Z,4.93
2019-02-14T00:23:13.963Z,5.23
2019-02-14T00:25:23.147Z,5.30
2019-02-14T00:27:30.042Z,4.43
2019-02-14T00:29:36.992Z,5.13
2019-02-14T00:31:45.281Z,6.00
2019-02-14T00:33:52.099Z,4.80
2019-02-14T00:35:59.185Z,4.67
2019-02-14T00:38:07.446Z,4.27
2019-02-14T00:40:14.381Z,5.17
2019-02-14T00:42:21.381Z,4.50
2019-02-14T00:44:28.464Z,5.63
2019-02-14T00:46:35.917Z,4.67
2019-02-14T00:48:44.171Z,5.57
2019-02-14T00:50:51.937Z,5.03
2019-02-14T00:53:01.126Z,5.80
2019-02-14T00:55:09.318Z,4.70
2019-02-14T00:57:16.847Z,5.10
2019-02-14T00:59:25.338Z,4.63
2019-02-14T01:01:32.542Z,5.33
2019-02-14T01:03:41.852Z,5.23
2019-02-14T01:05:48.660Z,4.50
2019-02-14T01:07:55.900Z,4.30
2019-02-14T01:10:02.908Z,5.00
2019-02-14T01:12:10.120Z,5.63
2019-02-14T01:14:17.756Z,4.97
2019-02-14T01:16:24.537Z,4.37
2019-02-14T01:18:31.925Z,4.80
2019-02-14T01:20:39.762Z,4.43
2019-02-14T01:22:46.933Z,5.10
2019-02-14T01:24:54.683Z,4.47
2019-02-14T01:27:01.512Z,4.33
2019-02-14T01:29:08.375Z,4.47
2019-02-14T01:31:15.447Z,4.57
2019-02-14T01:33:22.408Z,4.30
2019-02-14T01:35:29.572Z,4.10
2019-02-14T01:37:37.214Z,3.60
2019-02-14T01:39:44.718Z,4.03
2019-02-14T01:41:51.570Z,4.17
2019-02-14T01:43:58.534Z,4.20
2019-02-14T01:46:05.834Z,3.50
2019-02-14T01:48:12.801Z,3.83
2019-02-14T01:50:19.789Z,4.27
2019-02-14T01:52:27.166Z,3.87
2019-02-14T01:54:34.971Z,4.50
2019-02-14T01:56:44.541Z,4.53
2019-02-14T01:58:51.761Z,4.27
2019-02-14T02:00:58.889Z,4.93
2019-02-14T02:03:06.743Z,4.23
2019-02-14T02:05:14.093Z,3.73
2019-02-14T02:07:24.357Z,4.47
2019-02-14T02:09:31.270Z,3.83
2019-02-14T02:11:39.653Z,4.00
2019-02-14T02:13:46.857Z,4.10
2019-02-14T02:15:53.680Z,3.97
2019-02-14T02:18:01.072Z,3.83
2019-02-14T02:20:10.552Z,4.07
2019-02-14T02:22:17.565Z,3.93
2019-02-14T02:24:24.330Z,4.00
2019-02-14T02:26:31.386Z,4.40
2019-02-14T02:28:38.396Z,3.87
2019-02-14T02:30:45.665Z,4.00
2019-02-14T02:32:52.851Z,4.00
2019-02-14T02:34:59.882Z,3.87
2019-02-14T02:37:06.924Z,4.33
2019-02-14T02:39:14.108Z,4.23
2019-02-14T02:41:20.854Z,3.80
2019-02-14T02:43:27.998Z,3.50
2019-02-14T02:45:35.925Z,3.97
2019-02-14T02:47:43.026Z,3.93
2019-02-14T02:49:50.080Z,3.23
2019-02-14T02:51:56.976Z,3.50
2019-02-14T02:54:03.693Z,3.83
2019-02-14T02:56:10.981Z,4.07
2019-02-14T02:58:17.888Z,4.20
2019-02-14T03:00:24.898Z,4.50
2019-02-14T03:02:33.389Z,4.43
2019-02-14T03:04:40.834Z,3.77
2019-02-14T03:06:47.878Z,3.30
2019-02-14T03:08:55.217Z,4.77
2019-02-14T03:11:03.675Z,2.63
2019-02-14T03:13:10.959Z,4.20
2019-02-14T03:15:18.763Z,3.50
2019-02-14T03:17:26.003Z,4.00
2019-02-14T03:19:33.121Z,3.97
2019-02-14T03:21:40.146Z,3.80
2019-02-14T03:23:47.037Z,3.20
2019-02-14T03:25:53.982Z,4.20
2019-02-14T03:28:01.065Z,4.00
2019-02-14T03:30:12.482Z,4.20
2019-02-14T03:32:22.701Z,4.27
2019-02-14T03:34:30.640Z,3.87
2019-02-14T03:36:37.673Z,4.83
2019-02-14T03:38:44.702Z,4.53
2019-02-14T03:40:53.311Z,4.23
2019-02-14T03:43:00.979Z,3.80
2019-02-14T03:45:15.633Z,3.93
2019-02-14T03:47:22.682Z,4.00
2019-02-14T03:49:29.830Z,3.87
2019-02-14T03:51:36.792Z,3.73
2019-02-14T03:53:43.641Z,4.07
2019-02-14T03:55:50.859Z,4.20
2019-02-14T03:57:58.107Z,3.80
2019-02-14T04:00:14.319Z,3.97
2019-02-14T04:02:22.645Z,3.97
2019-02-14T04:04:29.707Z,4.47
2019-02-14T04:06:36.802Z,4.13
2019-02-14T04:08:45.494Z,3.87
2019-02-14T04:10:52.404Z,4.53
2019-02-14T04:12:59.282Z,4.33
2019-02-14T04:15:10.552Z,4.83
2019-02-14T04:17:17.509Z,4.13
2019-02-14T04:19:24.568Z,3.33
2019-02-14T04:21:31.982Z,3.50
2019-02-14T04:23:39.018Z,4.87
2019-02-14T04:25:46.044Z,4.63
2019-02-14T04:27:53.005Z,3.97
2019-02-14T04:29:59.980Z,4.13
2019-02-14T04:32:07.586Z,4.77
2019-02-14T04:34:14.806Z,4.47
2019-02-14T04:36:21.719Z,4.37
2019-02-14T04:38:29.238Z,4.30
2019-02-14T04:40:36.407Z,3.63
2019-02-14T04:42:43.276Z,4.57
2019-02-14T04:44:51.961Z,3.10
2019-02-14T04:46:59.186Z,4.20
2019-02-14T04:49:10.556Z,4.10
2019-02-14T04:51:17.946Z,3.83
2019-02-14T04:53:25.050Z,4.00
2019-02-14T04:57:45.039Z,3.30
2019-02-14T04:59:51.902Z,3.80
2019-02-14T05:01:58.995Z,3.77
2019-02-14T05:04:06.060Z,3.67
2019-02-14T05:06:12.936Z,4.07
2019-02-14T05:08:20.206Z,5.00
2019-02-14T05:10:27.074Z,4.23
2019-02-14T05:12:34.580Z,3.53
2019-02-14T05:14:41.535Z,4.13
2019-02-14T05:16:48.523Z,3.97
2019-02-14T05:18:55.732Z,2.77
2019-02-14T05:21:02.918Z,2.60
2019-02-14T05:23:09.845Z,3.37
2019-02-14T05:25:18.278Z,4.07
2019-02-14T05:27:25.241Z,3.27
2019-02-14T05:29:32.725Z,3.17
2019-02-14T05:31:40.142Z,4.03
2019-02-14T05:33:47.143Z,3.67
2019-02-14T05:35:54.052Z,4.67
2019-02-14T05:38:00.939Z,4.00
2019-02-14T05:40:13.037Z,4.40
2019-02-14T05:42:20.418Z,3.57
2019-02-14T05:44:27.428Z,3.93
2019-02-14T05:46:34.237Z,3.60
2019-02-14T05:48:41.277Z,4.03
2019-02-14T05:50:48.084Z,3.33
2019-02-14T05:52:55.125Z,3.47
2019-02-14T05:55:02.006Z,5.30
2019-02-14T05:57:08.848Z,3.67
2019-02-14T05:59:15.676Z,3.20
2019-02-14T06:01:22.736Z,3.53
2019-02-14T06:03:30.055Z,2.97
2019-02-14T06:05:39.005Z,3.53
2019-02-14T06:07:46.126Z,4.30
2019-02-14T06:09:52.934Z,3.83
2019-02-14T06:11:59.880Z,4.10
2019-02-14T06:14:07.982Z,4.90
2019-02-14T06:16:15.398Z,4.70
2019-02-14T06:18:23.130Z,4.40
2019-02-14T06:20:30.049Z,5.07
2019-02-14T06:22:36.975Z,4.93
2019-02-14T06:24:43.895Z,5.00
2019-02-14T06:26:51.073Z,5.87
2019-02-14T06:28:57.824Z,4.80
2019-02-14T06:31:04.839Z,5.10
2019-02-14T06:33:11.817Z,4.50
2019-02-14T06:35:20.197Z,5.90
2019-02-14T06:37:27.773Z,5.20
2019-02-14T06:39:36.379Z,5.00
2019-02-14T06:41:43.330Z,4.87
2019-02-14T06:43:50.244Z,4.40
2019-02-14T06:45:57.821Z,5.03
2019-02-14T06:48:05.128Z,5.20
2019-02-14T06:50:12.324Z,4.73
2019-02-14T06:52:19.466Z,4.60
2019-02-14T06:54:26.374Z,5.97
2019-02-14T06:56:33.388Z,6.17
2019-02-14T06:58:40.432Z,5.50
2019-02-14T07:00:47.279Z,5.63
2019-02-14T07:02:54.681Z,5.60
2019-02-14T07:05:06.908Z,5.93
2019-02-14T07:07:18.594Z,5.17
2019-02-14T07:09:22.951Z,6.03
2019-02-14T07:11:30.081Z,6.67
2019-02-14T07:13:37.542Z,6.97
2019-02-14T07:15:44.449Z,6.47
2019-02-14T07:17:51.598Z,6.33
2019-02-14T07:19:58.394Z,6.37
2019-02-14T07:22:05.276Z,7.13
2019-02-14T07:24:12.253Z,6.40
2019-02-14T07:26:19.314Z,5.60
2019-02-14T07:28:26.713Z,6.53
2019-02-14T07:30:33.879Z,6.83
2019-02-14T07:32:42.564Z,6.90
2019-02-14T07:34:49.854Z,6.10
2019-02-14T07:36:56.953Z,6.37
2019-02-14T07:39:05.362Z,6.70
2019-02-14T07:41:12.583Z,5.70
2019-02-14T07:43:20.052Z,5.10
2019-02-14T07:45:27.541Z,5.10
2019-02-14T07:47:34.739Z,5.20
2019-02-14T07:49:42.175Z,5.93
2019-02-14T07:51:49.104Z,5.67
2019-02-14T07:53:56.637Z,5.57
2019-02-14T07:56:05.187Z,5.17
2019-02-14T07:58:12.531Z,4.93
2019-02-14T08:00:24.071Z,5.07
2019-02-14T08:02:31.131Z,5.27
2019-02-14T08:04:38.231Z,5.43
2019-02-14T08:06:45.101Z,4.63
2019-02-14T08:08:52.529Z,5.40
2019-02-14T08:11:00.178Z,4.23
2019-02-14T08:13:07.129Z,5.77
2019-02-14T08:15:15.348Z,5.10
2019-02-14T08:17:22.215Z,4.60
2019-02-14T08:19:29.468Z,5.00
2019-02-14T08:21:36.980Z,5.27
2019-02-14T08:23:44.058Z,5.53
2019-02-14T08:25:51.268Z,4.80
2019-02-14T08:27:59.718Z,4.37
2019-02-14T08:30:12.960Z,4.53
2019-02-14T08:32:19.784Z,4.73
2019-02-14T08:34:26.749Z,5.17
2019-02-14T08:36:34.210Z,4.50
2019-02-14T08:38:41.267Z,4.80
2019-02-14T08:40:48.589Z,4.27
2019-02-14T08:42:58.460Z,4.73
2019-02-14T08:45:08.353Z,4.90
2019-02-14T08:47:15.299Z,4.57
2019-02-14T08:49:22.609Z,4.23
2019-02-14T08:51:29.938Z,3.60
2019-02-14T08:53:37.139Z,4.90
2019-02-14T08:55:45.897Z,4.27
2019-02-14T08:57:52.929Z,3.30
2019-02-14T08:59:59.789Z,3.97
2019-02-14T09:02:08.376Z,3.13
2019-02-14T09:04:15.785Z,4.20
2019-02-14T09:06:22.668Z,3.73
2019-02-14T09:08:29.548Z,3.70
2019-02-14T09:10:36.527Z,3.43
2019-02-14T09:12:43.449Z,3.37
2019-02-14T09:14:50.710Z,3.00
2019-02-14T09:16:59.809Z,3.30
2019-02-14T09:19:06.803Z,3.43
2019-02-14T09:21:13.716Z,4.27
2019-02-14T09:23:20.390Z,3.40
2019-02-14T09:25:30.472Z,3.40
2019-02-14T09:27:39.225Z,4.30
2019-02-14T09:29:46.156Z,4.10
2019-02-14T09:31:53.110Z,3.97
2019-02-14T09:34:01.139Z,4.27
2019-02-14T09:36:08.095Z,4.23
2019-02-14T09:38:14.986Z,4.77
2019-02-14T09:40:23.365Z,4.67
2019-02-14T09:42:32.778Z,4.77
2019-02-14T09:44:40.813Z,4.50
2019-02-14T09:46:48.777Z,4.83
2019-02-14T09:48:56.991Z,4.73
2019-02-14T09:51:04.760Z,5.03
2019-02-14T09:53:11.635Z,5.07
2019-02-14T09:55:19.962Z,5.50
2019-02-14T09:57:26.913Z,5.00
2019-02-14T09:59:33.788Z,5.40
2019-02-14T10:01:41.088Z,5.20
2019-02-14T10:03:48.868Z,14.53
2019-02-14T10:05:57.063Z,5.57
2019-02-14T10:08:12.372Z,5.30
2019-02-14T10:10:22.428Z,10.67
2019-02-14T10:12:29.982Z,5.87
2019-02-14T10:14:38.296Z,53.87
2019-02-14T10:16:45.740Z,4.20
2019-02-14T10:18:53.319Z,86.93
2019-02-14T10:21:00.355Z,29.50
2019-02-14T10:23:07.779Z,15.50
2019-02-14T10:25:15.048Z,84.23
2019-02-14T10:27:21.718Z,33.73
2019-02-14T10:29:28.589Z,5.13
2019-02-14T10:31:35.531Z,22.60
2019-02-14T10:33:42.887Z,7.30
2019-02-14T10:35:50.409Z,18.73
2019-02-14T10:37:57.601Z,2.43
2019-02-14T10:40:05.388Z,2.90
2019-02-14T10:42:12.962Z,2.40
2019-02-14T10:44:20.418Z,2.13
2019-02-14T10:46:28.009Z,2.43
2019-02-14T10:48:35.939Z,1.60
2019-02-14T10:50:44.241Z,1.57
2019-02-14T10:52:52.787Z,2.40
2019-02-14T10:54:59.769Z,1.70
2019-02-14T10:57:08.680Z,1.47
2019-02-14T10:59:15.890Z,2.07
2019-02-14T11:01:23.378Z,2.00
2019-02-14T11:03:30.451Z,2.87
2019-02-14T11:05:37.301Z,5.50
2019-02-14T11:07:44.525Z,2.70
2019-02-14T11:09:52.048Z,2.77
2019-02-14T11:11:59.107Z,2.73
2019-02-14T11:14:05.962Z,1.93
2019-02-14T11:16:13.116Z,2.63
2019-02-14T11:18:20.566Z,2.63
2019-02-14T11:20:28.180Z,3.13
2019-02-14T11:22:36.185Z,3.33
2019-02-14T11:24:44.286Z,5.00
2019-02-14T11:26:51.477Z,2.93
2019-02-14T11:28:58.544Z,4.60
2019-02-14T11:31:05.638Z,3.00
2019-02-14T11:33:13.291Z,2.33
2019-02-14T11:35:20.367Z,3.30
2019-02-14T11:37:27.326Z,2.57
2019-02-14T11:39:34.920Z,4.87
2019-02-14T11:41:41.885Z,15.63
2019-02-14T11:43:49.164Z,9.43
2019-02-14T11:45:56.223Z,32.57
2019-02-14T11:48:03.694Z,8.30
2019-02-14T11:50:12.681Z,8.13
2019-02-14T11:52:21.530Z,5.73
2019-02-14T11:54:29.697Z,3.13
2019-02-14T11:56:36.565Z,6.67
2019-02-14T11:58:43.395Z,5.77
2019-02-14T12:00:50.561Z,16.07
2019-02-14T12:02:57.950Z,3.03
2019-02-14T12:05:06.074Z,11.73
2019-02-14T12:07:13.322Z,2.40
2019-02-14T12:09:20.614Z,13.43
2019-02-14T12:11:27.714Z,6.60
2019-02-14T12:13:35.285Z,118.90
2019-02-14T12:15:42.452Z,13.43
2019-02-14T12:17:49.272Z,3.13
2019-02-14T12:19:56.954Z,3.10
2019-02-14T12:22:04.194Z,5.23
2019-02-14T12:24:11.231Z,3.60
2019-02-14T12:26:18.202Z,3.07
2019-02-14T12:28:25.534Z,3.10
2019-02-14T12:30:32.786Z,2.57
2019-02-14T12:32:39.946Z,3.10
2019-02-14T12:34:46.834Z,4.00
2019-02-14T12:36:53.984Z,11.67
2019-02-14T12:39:08.595Z,3.70
2019-02-14T12:41:11.496Z,20.53
2019-02-14T12:43:19.877Z,3.60
2019-02-14T12:45:28.306Z,3.67
2019-02-14T12:47:35.297Z,2.63
2019-02-14T12:49:42.588Z,2.30
2019-02-14T12:51:49.705Z,10.23
2019-02-14T12:53:57.899Z,3.80
2019-02-14T12:56:05.289Z,5.13
2019-02-14T12:58:12.397Z,3.57
2019-02-14T13:00:22.797Z,3.27
2019-02-14T13:02:30.498Z,3.67
2019-02-14T13:04:38.005Z,2.53
2019-02-14T13:06:45.502Z,4.40
2019-02-14T13:08:53.490Z,2.47
2019-02-14T13:11:02.004Z,2.00
2019-02-14T13:13:09.888Z,2.80
2019-02-14T13:15:26.063Z,2.70
2019-02-14T13:17:33.103Z,2.77
2019-02-14T13:19:40.315Z,3.13
2019-02-14T13:21:47.342Z,2.47
2019-02-14T13:23:54.191Z,3.40
2019-02-14T13:26:02.560Z,2.47
2019-02-14T13:28:10.116Z,3.17
2019-02-14T13:30:26.306Z,3.50
2019-02-14T13:32:33.512Z,2.97
2019-02-14T13:34:40.441Z,5.03
2019-02-14T13:36:47.439Z,4.30
2019-02-14T13:38:55.835Z,4.07
2019-02-14T13:41:03.333Z,6.00
2019-02-14T13:43:10.601Z,3.50
2019-02-14T13:45:26.158Z,4.47
2019-02-14T13:47:32.955Z,4.93
2019-02-14T13:49:39.858Z,3.20
2019-02-14T13:51:47.145Z,5.20
2019-02-14T13:53:53.918Z,5.17
2019-02-14T13:56:03.604Z,5.73
2019-02-14T13:58:10.652Z,3.93
2019-02-14T14:00:28.021Z,4.60
2019-02-14T14:02:35.223Z,4.53
2019-02-14T14:04:44.834Z,3.53
2019-02-14T14:06:51.963Z,3.60
2019-02-14T14:09:00.610Z,3.43
2019-02-14T14:11:13.692Z,4.00
2019-02-14T14:13:21.365Z,3.87
2019-02-14T14:15:28.912Z,3.50
2019-02-14T14:17:36.464Z,4.47
2019-02-14T14:19:43.521Z,3.53
2019-02-14T14:21:50.720Z,4.73
2019-02-14T14:23:57.811Z,4.20
2019-02-14T14:26:04.788Z,7.57
2019-02-14T14:28:11.859Z,6.00
2019-02-14T14:30:18.745Z,3.20
2019-02-14T14:32:25.784Z,4.10
2019-02-14T14:34:32.821Z,4.93
2019-02-14T14:36:39.789Z,3.50
2019-02-14T14:38:46.738Z,3.67
2019-02-14T14:40:54.930Z,4.73
2019-02-14T14:43:16.963Z,2.93
2019-02-14T14:45:41.874Z,2.77
2019-02-14T14:47:49.347Z,4.10
2019-02-14T14:49:56.049Z,2.80
2019-02-14T14:52:02.962Z,4.33
2019-02-14T14:54:09.892Z,4.80
2019-02-14T14:56:17.131Z,3.70
2019-02-14T14:58:24.515Z,3.27
2019-02-14T15:00:31.360Z,4.27
2019-02-14T15:02:39.645Z,4.00
2019-02-14T15:04:46.708Z,5.20
2019-02-14T15:06:53.600Z,4.97
2019-02-14T15:09:00.805Z,3.80
2019-02-14T15:11:07.871Z,4.53
2019-02-14T15:13:15.170Z,4.70
2019-02-14T15:15:22.438Z,5.07
2019-02-14T15:17:29.901Z,3.30
2019-02-14T15:19:36.873Z,3.60
2019-02-14T15:21:43.872Z,4.70
2019-02-14T15:23:50.817Z,6.10
2019-02-14T15:28:44.208Z,4.80
2019-02-14T15:30:51.180Z,4.17
2019-02-14T15:33:06.121Z,4.30
2019-02-14T15:35:18.471Z,4.87
2019-02-14T15:37:25.228Z,4.57
2019-02-14T15:39:32.317Z,4.60
2019-02-14T15:41:39.293Z,3.53
2019-02-14T15:43:46.282Z,6.83
2019-02-14T15:45:53.438Z,5.83
2019-02-14T15:48:00.317Z,6.80
2019-02-14T15:50:09.672Z,5.50
2019-02-14T15:52:16.953Z,4.77
2019-02-14T15:54:24.530Z,5.03
2019-02-14T15:56:32.062Z,5.77
2019-02-14T15:58:40.248Z,4.57
2019-02-14T16:00:49.418Z,4.83
2019-02-14T16:02:56.133Z,4.60
2019-02-14T16:05:03.684Z,7.20
2019-02-14T16:07:10.678Z,5.77
2019-02-14T16:09:17.971Z,5.87
2019-02-14T16:11:24.961Z,4.60
2019-02-14T16:13:33.622Z,5.47
2019-02-14T16:15:40.684Z,7.77
2019-02-14T16:17:48.060Z,8.40
2019-02-14T16:19:56.045Z,8.17
2019-02-14T16:22:04.256Z,29.30
2019-02-14T16:24:12.213Z,20.30
2019-02-14T16:26:20.944Z,10.27
2019-02-14T16:28:28.023Z,10.77
2019-02-14T16:30:35.524Z,9.37
2019-02-14T16:32:42.876Z,12.13
2019-02-14T16:34:50.016Z,36.47
2019-02-14T16:36:57.985Z,64.37
2019-02-14T16:39:06.841Z,52.23
2019-02-14T16:41:13.705Z,38.90
2019-02-14T16:43:20.884Z,41.50
2019-02-14T16:45:28.054Z,35.17
2019-02-14T16:47:35.067Z,42.37
2019-02-14T16:49:42.503Z,50.27
2019-02-14T16:51:49.874Z,41.03
2019-02-14T16:53:57.063Z,35.63
2019-02-14T16:56:03.896Z,33.40
2019-02-14T16:58:10.854Z,81.20
2019-02-14T17:00:19.055Z,33.90
2019-02-14T17:02:26.939Z,19.40
2019-02-14T17:04:34.455Z,16.20
2019-02-14T17:06:41.513Z,16.73
2019-02-14T17:08:49.057Z,19.50
2019-02-14T17:10:57.060Z,15.97
2019-02-14T17:13:04.171Z,16.73
2019-02-14T17:15:12.191Z,20.47
2019-02-14T17:17:27.693Z,19.23
2019-02-14T17:19:29.900Z,28.63
2019-02-14T17:21:37.121Z,26.73
2019-02-14T17:23:44.701Z,25.30
2019-02-14T17:25:52.410Z,24.13
2019-02-14T17:27:59.501Z,35.07
2019-02-14T17:30:09.722Z,19.97
2019-02-14T17:32:16.890Z,20.83
2019-02-14T17:34:24.473Z,17.53
2019-02-14T17:36:31.840Z,14.97
2019-02-14T17:38:38.921Z,12.90
2019-02-14T17:40:46.541Z,10.17
2019-02-14T17:42:54.181Z,10.03
2019-02-14T17:45:01.441Z,10.07
2019-02-14T17:47:09.177Z,11.67
2019-02-14T17:49:16.390Z,10.47
2019-02-14T17:51:23.680Z,8.40
2019-02-14T17:53:31.181Z,9.43
2019-02-14T17:55:38.730Z,7.90
2019-02-14T17:57:45.947Z,7.60
2019-02-14T17:59:53.075Z,7.63
2019-02-14T18:02:00.661Z,7.87
2019-02-14T18:04:08.209Z,8.50
2019-02-14T18:06:15.519Z,6.33
2019-02-14T18:08:23.466Z,8.73
2019-02-14T18:10:31.595Z,7.20
2019-02-14T18:12:39.005Z,8.50
2019-02-14T18:14:50.502Z,8.80
2019-02-14T18:16:57.865Z,8.60
2019-02-14T18:19:06.647Z,9.20
2019-02-14T18:21:14.773Z,8.53
2019-02-14T18:23:22.186Z,9.40
2019-02-14T18:25:29.347Z,9.00
2019-02-14T18:27:36.638Z,9.40
2019-02-14T18:29:44.946Z,10.30
2019-02-14T18:31:52.114Z,10.53
2019-02-14T18:33:59.365Z,11.17
2019-02-14T18:36:06.984Z,11.63
2019-02-14T18:38:14.581Z,10.23
2019-02-14T18:40:22.208Z,12.80
2019-02-14T18:42:30.342Z,11.67
2019-02-14T18:44:38.274Z,11.10
2019-02-14T18:46:45.791Z,15.07
2019-02-14T18:48:54.704Z,12.63
2019-02-14T18:51:02.693Z,12.00
2019-02-14T18:53:09.973Z,14.87
2019-02-14T18:55:18.427Z,14.30
2019-02-14T18:57:26.283Z,26.07
2019-02-14T18:59:33.681Z,21.17
2019-02-14T19:01:41.024Z,12.93
2019-02-14T19:03:48.263Z,12.67
2019-02-14T19:05:57.529Z,13.00
2019-02-14T19:08:07.734Z,12.77
2019-02-14T19:10:19.017Z,13.70
2019-02-14T19:12:26.325Z,14.30
2019-02-14T19:14:34.015Z,13.07
2019-02-14T19:16:41.304Z,13.37
2019-02-14T19:18:49.249Z,12.40
2019-02-14T19:20:56.848Z,11.77
2019-02-14T19:23:06.056Z,14.20
2019-02-14T19:25:13.692Z,13.67
2019-02-14T19:27:21.164Z,14.57
2019-02-14T19:29:28.964Z,16.03
2019-02-14T19:31:36.555Z,15.63
2019-02-14T19:36:09.664Z,15.57
2019-02-14T19:38:18.661Z,14.43
2019-02-14T19:40:26.354Z,14.40
2019-02-14T19:42:33.595Z,15.60
2019-02-14T19:44:41.072Z,15.50
2019-02-14T19:46:49.966Z,14.83
2019-02-14T19:48:57.484Z,15.73
2019-02-14T19:51:04.638Z,15.40
2019-02-14T19:53:11.945Z,16.20
2019-02-14T19:55:19.425Z,16.03
2019-02-14T19:57:26.714Z,17.73
2019-02-14T19:59:34.001Z,16.30
2019-02-14T20:01:41.205Z,16.07
2019-02-14T20:03:48.585Z,15.80
2019-02-14T20:05:57.354Z,15.43
2019-02-14T20:08:06.875Z,15.90
2019-02-14T20:10:15.995Z,15.53
2019-02-14T20:12:23.255Z,15.90
2019-02-14T20:14:31.031Z,15.93
2019-02-14T20:16:39.594Z,17.00
2019-02-14T20:18:47.482Z,16.13
2019-02-14T20:20:55.846Z,17.17
2019-02-14T20:23:04.054Z,16.77
2019-02-14T20:25:15.941Z,17.03
2019-02-14T20:27:25.243Z,16.90
2019-02-14T20:29:32.461Z,16.57
2019-02-14T20:31:40.231Z,17.77
2019-02-14T20:33:48.358Z,16.43
2019-02-14T20:35:56.492Z,17.57
2019-02-14T20:38:03.981Z,17.80
2019-02-14T20:40:13.155Z,18.37
2019-02-14T20:42:21.044Z,17.17
2019-02-14T20:44:28.572Z,16.30
2019-02-14T20:46:36.235Z,18.13
2019-02-14T20:48:44.060Z,18.77
2019-02-14T20:50:51.959Z,19.10
2019-02-14T20:53:00.072Z,18.50
2019-02-14T20:55:11.235Z,18.67
2019-02-14T20:57:19.171Z,19.33
2019-02-14T20:59:26.923Z,20.47
2019-02-14T21:01:35.988Z,19.77
2019-02-14T21:03:43.242Z,18.63
2019-02-14T21:05:50.424Z,19.73
2019-02-14T21:07:57.604Z,18.90
2019-02-14T21:10:05.915Z,19.70
2019-02-14T21:12:13.464Z,20.40
2019-02-14T21:14:20.778Z,18.73
2019-02-14T21:16:28.184Z,19.40
2019-02-14T21:18:35.585Z,24.63
2019-02-14T21:20:43.334Z,20.90
2019-02-14T21:22:51.665Z,18.53
2019-02-14T21:24:59.189Z,20.80
2019-02-14T21:27:06.944Z,20.67
2019-02-14T21:29:14.569Z,20.43
2019-02-14T21:31:22.228Z,20.03
2019-02-14T21:33:29.798Z,19.97
2019-02-14T21:35:37.745Z,19.37
2019-02-14T21:37:45.109Z,19.87
2019-02-14T21:39:52.756Z,20.33
2019-02-14T21:42:18.642Z,20.67
2019-02-14T21:44:09.526Z,21.57
2019-02-14T21:46:17.635Z,21.77
2019-02-14T21:48:24.903Z,20.90
2019-02-14T21:50:32.345Z,21.70
2019-02-14T21:52:39.826Z,20.73
2019-02-14T21:54:48.097Z,20.50
2019-02-14T21:56:56.030Z,20.63
2019-02-14T21:59:03.787Z,21.33
2019-02-14T22:01:12.675Z,21.23
2019-02-14T22:03:19.833Z,20.00
2019-02-14T22:05:27.030Z,20.87
2019-02-14T22:07:35.313Z,20.30
2019-02-14T22:09:42.691Z,21.50
2019-02-14T22:11:49.649Z,21.33
2019-02-14T22:13:57.145Z,21.27
2019-02-14T22:16:04.176Z,22.23
2019-02-14T22:18:12.277Z,24.93
2019-02-14T22:20:19.295Z,22.57
2019-02-14T22:22:26.728Z,23.87
2019-02-14T22:24:34.974Z,23.50
2019-02-14T22:26:43.094Z,22.47
2019-02-14T22:28:50.075Z,21.97
2019-02-14T22:30:57.374Z,22.90
2019-02-14T22:33:04.255Z,22.87
2019-02-14T22:35:11.384Z,20.07
2019-02-14T22:37:18.625Z,21.53
2019-02-14T22:39:26.422Z,21.60
2019-02-14T22:41:35.414Z,27.63
2019-02-14T22:43:42.417Z,23.87
2019-02-14T22:45:49.458Z,24.70
2019-02-14T22:47:57.024Z,20.73
2019-02-14T22:50:04.463Z,23.73
2019-02-14T22:52:11.143Z,23.73
2019-02-14T22:54:18.359Z,23.30
2019-02-14T22:56:25.930Z,21.17
2019-02-14T22:58:33.105Z,21.53
2019-02-14T23:00:43.930Z,21.50
2019-02-14T23:02:51.024Z,21.60
2019-02-14T23:04:57.892Z,21.97
2019-02-14T23:07:05.221Z,21.30
2019-02-14T23:09:12.326Z,21.27
2019-02-14T23:11:19.565Z,21.60
2019-02-14T23:13:26.497Z,22.37
2019-02-14T23:15:33.538Z,23.50
2019-02-14T23:17:42.103Z,22.13
2019-02-14T23:19:49.062Z,21.50
2019-02-14T23:21:56.555Z,22.17
2019-02-14T23:24:03.552Z,21.57
2019-02-14T23:26:10.613Z,20.17
2019-02-14T23:28:19.092Z,21.00
2019-02-14T23:30:25.993Z,21.60
2019-02-14T23:32:33.140Z,20.90
2019-02-14T23:34:41.322Z,20.80
2019-02-14T23:36:48.278Z,21.63
2019-02-14T23:38:55.741Z,21.87
2019-02-14T23:41:02.871Z,23.70
2019-02-14T23:43:11.332Z,22.13
2019-02-14T23:45:18.243Z,20.93
2019-02-14T23:47:25.905Z,20.97
2019-02-14T23:49:32.785Z,21.53
2019-02-14T23:51:39.902Z,21.67
2019-02-14T23:53:48.161Z,22.00
2019-02-14T23:55:54.951Z,21.67
2019-02-14T23:58:01.635Z,21.73
